Time;durP1;ratioP1;P1;durP2;ratioP2;P2;SDS_P1;SDS_P2;PMS_P1;PMS_P2;Temp;Humidity;BMP_temperature;BMP_pressure;BME280_temperature;BME280_humidity;BME280_pressure;Samples;Min_cycle;Max_cycle;Signal;HPM_P1;HPM_P2
2021/05/09 00:00:09;;;;;;;10.40;5.82;;;;;;;11.39;64.64;99414.84;2214412;40;21357;-78
2021/05/09 00:01:42;;;;;;;10.27;5.28;;;;;;;11.37;64.63;99413.34;2214606;40;20034;-77
2021/05/09 00:03:13;;;;;;;10.20;6.15;;;;;;;11.36;64.69;99417.00;2213553;40;20037;-80
2021/05/09 00:04:45;;;;;;;10.15;6.55;;;;;;;11.33;64.78;99412.84;2208843;40;20053;-76
2021/05/09 00:06:17;;;;;;;8.38;5.78;;;;;;;11.30;64.81;99410.47;2211480;40;20029;-81
2021/05/09 00:07:50;;;;;;;8.00;4.93;;;;;;;11.32;64.64;99408.47;2210928;40;20380;-80
2021/05/09 00:09:21;;;;;;;9.55;6.78;;;;;;;11.30;64.74;99410.47;2206743;40;20073;-78
2021/05/09 00:10:52;;;;;;;9.10;5.63;;;;;;;11.25;64.93;99418.16;2213422;40;20449;-80
2021/05/09 00:12:24;;;;;;;10.23;6.32;;;;;;;11.20;64.94;99409.78;2209210;40;20033;-80
2021/05/09 00:13:55;;;;;;;8.60;5.85;;;;;;;11.13;65.13;99409.59;2206380;40;20106;-78
2021/05/09 00:15:27;;;;;;;11.27;7.30;;;;;;;11.07;65.37;99405.75;2210252;40;20109;-80
2021/05/09 00:16:58;;;;;;;9.75;5.88;;;;;;;11.04;65.57;99400.75;2213400;40;20090;-78
2021/05/09 00:18:30;;;;;;;8.02;5.45;;;;;;;11.02;65.70;99394.72;2216310;40;20670;-77
2021/05/09 00:20:02;;;;;;;9.10;6.13;;;;;;;11.00;65.66;99394.03;2215025;40;20034;-77
2021/05/09 00:21:33;;;;;;;7.43;5.28;;;;;;;10.99;65.73;99397.69;2218397;40;20037;-77
2021/05/09 00:23:04;;;;;;;8.30;4.75;;;;;;;10.98;65.74;99404.03;2209349;40;20041;-79
2021/05/09 00:24:35;;;;;;;7.63;5.32;;;;;;;10.99;65.68;99392.34;2211324;40;21107;-80
2021/05/09 00:26:07;;;;;;;9.57;5.57;;;;;;;10.93;65.56;99399.19;2212025;40;20038;-77
2021/05/09 00:27:40;;;;;;;12.60;5.68;;;;;;;10.92;65.79;99391.34;2210093;40;20049;-79
2021/05/09 00:29:12;;;;;;;10.15;5.07;;;;;;;10.86;66.00;99397.34;2214200;40;20111;-78
2021/05/09 00:30:46;;;;;;;10.07;6.80;;;;;;;10.84;66.13;99389.47;2212729;40;20057;-79
2021/05/09 00:32:19;;;;;;;6.53;4.65;;;;;;;10.81;66.13;99386.28;2211119;40;20040;-79
2021/05/09 00:33:52;;;;;;;8.77;5.80;;;;;;;10.83;66.01;99389.63;2207870;40;20046;-79
2021/05/09 00:35:23;;;;;;;8.38;5.85;;;;;;;10.79;66.35;99380.25;2211049;40;20397;-79
2021/05/09 00:36:54;;;;;;;10.68;6.00;;;;;;;10.76;66.21;99378.75;2209510;40;20065;-78
2021/05/09 00:38:25;;;;;;;9.45;5.20;;;;;;;10.72;66.27;99385.44;2211525;40;20410;-78
2021/05/09 00:39:57;;;;;;;9.00;5.57;;;;;;;10.75;66.17;99382.41;2208341;40;20042;-79
2021/05/09 00:41:28;;;;;;;10.65;5.68;;;;;;;10.76;66.26;99381.44;2210148;40;20116;-78
2021/05/09 00:43:00;;;;;;;9.77;6.05;;;;;;;10.75;66.06;99383.28;2179448;40;20040;-78
2021/05/09 00:44:31;;;;;;;10.93;4.93;;;;;;;10.77;66.21;99383.94;2173772;41;20040;-78
2021/05/09 00:46:02;;;;;;;9.77;5.13;;;;;;;10.76;66.00;99378.75;2145861;40;20048;-77
2021/05/09 00:47:34;;;;;;;10.35;5.30;;;;;;;10.73;65.87;99374.56;2180345;41;20047;-80
2021/05/09 00:49:08;;;;;;;7.50;4.70;;;;;;;10.73;66.06;99374.56;2168373;41;20478;-80
2021/05/09 00:50:39;;;;;;;11.77;5.45;;;;;;;10.70;66.10;99380.22;2172791;41;20037;-79
2021/05/09 00:52:13;;;;;;;7.60;4.63;;;;;;;10.69;66.08;99370.53;2176730;40;20062;-78
2021/05/09 00:53:44;;;;;;;8.05;4.53;;;;;;;10.66;66.16;99370.88;2192172;40;20042;-79
2021/05/09 00:55:16;;;;;;;9.70;5.63;;;;;;;10.64;66.05;99372.88;2209731;40;20075;-79
2021/05/09 00:56:49;;;;;;;14.80;7.15;;;;;;;10.59;65.97;99376.03;2203295;40;20037;-78
2021/05/09 00:58:28;;;;;;;9.13;4.72;;;;;;;10.55;66.17;99372.00;2205234;40;20034;-78
2021/05/09 01:00:07;;;;;;;9.52;5.18;;;;;;;10.53;66.10;99375.81;2204168;40;20046;-78
2021/05/09 01:01:41;;;;;;;8.25;5.32;;;;;;;10.52;66.02;99368.81;2147198;40;20060;-78
2021/05/09 01:03:15;;;;;;;8.38;5.45;;;;;;;10.49;66.07;99364.63;2179647;40;20039;-78
2021/05/09 01:08:03;;;;;;;8.27;5.32;;;;;;;10.43;66.28;99362.59;2248048;39;20409;-78
2021/05/09 01:09:34;;;;;;;9.60;4.57;;;;;;;10.39;66.55;99356.72;2248741;39;20043;-79
2021/05/09 01:11:08;;;;;;;9.50;5.03;;;;;;;10.38;66.46;99355.06;2226909;40;20541;-79
2021/05/09 01:12:39;;;;;;;9.45;5.10;;;;;;;10.36;66.59;99358.84;2230165;39;20048;-77
2021/05/09 01:14:10;;;;;;;7.97;4.68;;;;;;;10.32;66.78;99347.66;2229984;40;20033;-78
2021/05/09 01:15:43;;;;;;;8.25;5.13;;;;;;;10.30;66.70;99355.84;2224356;39;20100;-79
2021/05/09 01:17:14;;;;;;;11.02;6.20;;;;;;;10.26;66.70;99342.97;2225814;40;20034;-79
2021/05/09 01:18:46;;;;;;;6.97;4.38;;;;;;;10.24;66.87;99355.63;2184863;40;20051;-78
2021/05/09 01:20:37;;;;;;;7.53;5.10;;;;;;;10.13;67.01;99346.91;2215515;40;20045;-79
2021/05/09 01:22:11;;;;;;;8.52;5.07;;;;;;;10.09;67.46;99347.38;2195866;40;20049;-78
2021/05/09 01:23:41;;;;;;;8.70;5.60;;;;;;;10.07;67.55;99339.53;2233699;40;20053;-78
2021/05/09 01:25:13;;;;;;;9.20;5.55;;;;;;;10.09;67.55;99342.88;2202118;40;20041;-78
2021/05/09 01:26:44;;;;;;;9.73;5.63;;;;;;;10.11;67.46;99346.22;2225807;40;20036;-78
2021/05/09 01:28:16;;;;;;;8.43;5.25;;;;;;;10.09;67.58;99342.88;2235078;39;20529;-79
2021/05/09 01:29:48;;;;;;;8.15;4.97;;;;;;;10.09;67.61;99342.88;2234019;40;20037;-79
2021/05/09 01:31:20;;;;;;;8.48;5.80;;;;;;;10.11;67.51;99342.72;2232543;39;20068;-78
2021/05/09 01:32:50;;;;;;;7.55;4.97;;;;;;;10.08;67.59;99335.88;2233795;39;20056;-79
2021/05/09 01:34:22;;;;;;;7.57;4.35;;;;;;;10.07;67.74;99341.34;2233632;40;20083;-78
2021/05/09 01:35:54;;;;;;;8.15;5.20;;;;;;;10.06;67.62;99337.84;2220103;40;20052;-79
2021/05/09 01:37:26;;;;;;;11.25;5.32;;;;;;;10.07;67.73;99339.53;2234381;39;20093;-77
2021/05/09 01:38:57;;;;;;;7.43;4.82;;;;;;;10.03;67.68;99340.81;2240908;39;20052;-79
2021/05/09 01:40:29;;;;;;;8.05;5.00;;;;;;;10.01;67.88;99340.16;2234361;39;20067;-79
2021/05/09 01:42:02;;;;;;;7.85;5.25;;;;;;;9.97;67.76;99334.28;2239641;39;20028;-79
2021/05/09 01:43:34;;;;;;;9.02;5.05;;;;;;;9.94;67.89;99345.31;2238170;39;20058;-79
2021/05/09 01:45:07;;;;;;;7.95;4.45;;;;;;;9.94;68.05;99331.09;2240096;39;20035;-78
2021/05/09 01:47:04;;;;;;;9.13;4.82;;;;;;;9.93;67.95;99342.78;2238851;39;20047;-79
2021/05/09 01:48:41;;;;;;;7.15;4.22;;;;;;;9.91;67.84;99337.59;2235778;39;20057;-79
2021/05/09 01:50:20;;;;;;;7.10;4.78;;;;;;;9.89;67.89;99341.44;2241894;39;20047;-80
2021/05/09 01:51:54;;;;;;;6.35;3.97;;;;;;;9.87;68.11;99341.56;2222192;40;20040;-79
2021/05/09 01:53:25;;;;;;;7.18;4.45;;;;;;;9.83;68.13;99343.72;2230563;40;20028;-80
2021/05/09 01:54:56;;;;;;;9.57;4.65;;;;;;;9.81;68.27;99332.38;2211864;39;20181;-79
2021/05/09 01:56:28;;;;;;;5.97;4.10;;;;;;;9.81;68.53;99339.53;2235663;39;20040;-78
2021/05/09 01:57:59;;;;;;;7.85;5.38;;;;;;;9.77;68.43;99331.00;2239583;39;20044;-79
2021/05/09 01:59:31;;;;;;;8.95;4.55;;;;;;;9.75;68.37;99335.66;2242813;39;20064;-79
2021/05/09 02:03:28;;;;;;;7.05;4.50;;;;;;;9.73;68.36;99336.81;2218811;39;20033;-78
2021/05/09 02:05:00;;;;;;;9.93;5.20;;;;;;;9.73;68.50;99336.81;2243727;39;20028;-77
2021/05/09 02:06:31;;;;;;;6.45;3.95;;;;;;;9.72;68.38;99336.00;2242041;39;20035;-77
2021/05/09 02:08:04;;;;;;;9.35;4.90;;;;;;;9.72;68.60;99335.13;2241793;39;20093;-79
2021/05/09 02:12:06;;;;;;;7.30;4.07;;;;;;;9.69;68.56;99346.97;2238551;39;20048;-78
2021/05/09 02:13:37;;;;;;;6.82;4.55;;;;;;;9.72;68.49;99346.66;2244079;39;20038;-79
2021/05/09 02:17:33;;;;;;;8.75;5.60;;;;;;;9.57;68.71;99342.88;2220398;39;20044;-80
2021/05/09 02:19:09;;;;;;;7.88;4.75;;;;;;;9.53;68.85;99339.69;2229321;39;20057;-79
2021/05/09 02:20:41;;;;;;;9.15;5.00;;;;;;;9.52;68.99;99338.84;2224163;40;20041;-79
2021/05/09 02:22:14;;;;;;;7.25;4.57;;;;;;;9.52;69.09;99338.84;2214685;40;20037;-80
2021/05/09 02:23:46;;;;;;;6.80;4.13;;;;;;;9.52;69.04;99336.19;2216698;40;20551;-79
2021/05/09 02:25:17;;;;;;;6.40;3.92;;;;;;;9.51;68.99;99334.50;2227092;39;20060;-80
2021/05/09 02:26:49;;;;;;;7.85;5.13;;;;;;;9.51;69.19;99334.50;2231007;40;20035;-80
2021/05/09 02:28:19;;;;;;;6.43;3.60;;;;;;;9.54;69.15;99333.34;2228820;39;20048;-80
2021/05/09 02:29:51;;;;;;;8.50;4.40;;;;;;;9.54;69.07;99330.69;2230277;40;20036;-80
2021/05/09 02:31:22;;;;;;;6.57;3.97;;;;;;;9.55;68.89;99324.34;2228695;39;20040;-80
2021/05/09 02:32:55;;;;;;;9.77;4.80;;;;;;;9.57;68.66;99332.19;2230472;40;20036;-79
2021/05/09 02:34:26;;;;;;;8.65;4.57;;;;;;;9.58;68.84;99328.53;2229358;39;20098;-81
2021/05/09 02:35:58;;;;;;;6.70;4.20;;;;;;;9.56;68.98;99325.19;2231448;40;20149;-80
2021/05/09 02:37:32;;;;;;;6.13;4.07;;;;;;;9.55;69.14;99326.16;2237519;39;20045;-78
2021/05/09 02:39:05;;;;;;;8.55;4.30;;;;;;;9.54;69.05;99332.53;2241180;39;20358;-79
2021/05/09 02:40:42;;;;;;;8.23;4.20;;;;;;;9.56;69.07;99335.84;2239803;39;20039;-80
2021/05/09 02:42:21;;;;;;;6.40;4.35;;;;;;;9.56;69.09;99335.84;2241073;40;20028;-81
2021/05/09 02:43:52;;;;;;;6.72;4.05;;;;;;;9.52;69.12;99330.00;2239857;40;20044;-77
2021/05/09 02:50:40;;;;;;;6.35;4.22;;;;;;;9.52;69.18;99332.66;2231910;40;20037;-80
2021/05/09 02:52:11;;;;;;;5.72;3.15;;;;;;;9.50;69.26;99338.16;2230774;39;20105;-80
2021/05/09 02:53:43;;;;;;;7.97;3.42;;;;;;;9.49;69.25;99333.81;2242018;39;20609;-77
2021/05/09 02:55:15;;;;;;;7.25;3.45;;;;;;;9.50;69.26;99340.84;2239759;39;20065;-78
2021/05/09 02:56:46;;;;;;;9.48;4.57;;;;;;;9.49;69.32;99333.81;2238767;40;20036;-81
2021/05/09 02:58:17;;;;;;;6.25;3.53;;;;;;;9.47;69.24;99338.47;2239261;39;20076;-79
2021/05/09 02:59:49;;;;;;;7.00;4.78;;;;;;;9.42;69.25;99339.91;2238630;39;20464;-79
2021/05/09 03:01:20;;;;;;;8.32;4.47;;;;;;;9.41;69.39;99331.09;2234733;39;20040;-77
2021/05/09 03:08:12;;;;;;;6.80;4.38;;;;;;;9.42;69.18;99348.78;2228599;40;20425;-80
2021/05/09 03:09:44;;;;;;;8.98;4.57;;;;;;;9.41;69.40;99341.75;2234159;39;20040;-78
2021/05/09 03:11:15;;;;;;;5.60;3.70;;;;;;;9.41;69.32;99339.09;2237881;40;20040;-79
2021/05/09 03:12:47;;;;;;;6.75;4.50;;;;;;;9.35;69.38;99334.38;2238143;39;20055;-80
2021/05/09 03:14:18;;;;;;;8.38;4.50;;;;;;;9.35;69.64;99339.72;2238046;39;20060;-79
2021/05/09 03:15:49;;;;;;;7.28;4.57;;;;;;;9.33;69.77;99341.69;2238259;39;20149;-78
2021/05/09 03:35:07;;;;;;;7.70;4.22;;;;;;;9.18;69.96;99342.22;2216963;40;20065;-80
2021/05/09 03:36:38;;;;;;;7.38;4.28;;;;;;;9.17;69.85;99337.88;2217480;40;20037;-77
2021/05/09 03:38:09;;;;;;;5.97;3.70;;;;;;;9.17;70.00;99343.22;2220170;40;20552;-78
2021/05/09 03:45:02;;;;;;;7.73;4.80;;;;;;;9.10;69.91;99336.81;2164237;40;20044;-79
2021/05/09 03:46:33;;;;;;;6.55;3.72;;;;;;;9.11;70.19;99346.50;2180863;40;20295;-80
2021/05/09 03:55:30;;;;;;;5.30;3.28;;;;;;;9.10;70.14;99342.16;2186412;40;20038;-80
2021/05/09 03:57:05;;;;;;;6.97;3.92;;;;;;;9.09;70.10;99337.81;2206494;40;20035;-80
2021/05/09 03:58:36;;;;;;;6.88;3.90;;;;;;;9.08;70.15;99330.78;2228679;39;20098;-78
2021/05/09 04:04:44;;;;;;;6.05;4.15;;;;;;;9.01;70.18;99327.06;2231194;39;20036;-79
2021/05/09 04:09:31;;;;;;;5.72;3.63;;;;;;;8.99;70.33;99323.72;2215748;40;20424;-80
2021/05/09 04:11:03;;;;;;;7.65;5.00;;;;;;;8.96;70.32;99327.53;2227649;40;20055;-80
2021/05/09 04:12:36;;;;;;;8.18;4.50;;;;;;;8.96;70.42;99324.03;2230311;39;20063;-79
2021/05/09 04:14:08;;;;;;;7.07;3.75;;;;;;;8.98;70.36;99330.88;2224499;40;20025;-80
2021/05/09 04:15:39;;;;;;;8.18;4.40;;;;;;;8.98;70.39;99325.56;2224488;39;20044;-77
2021/05/09 04:17:10;;;;;;;7.85;4.57;;;;;;;9.00;70.17;99322.72;2230709;40;20054;-79
2021/05/09 04:18:41;;;;;;;6.43;4.28;;;;;;;8.94;70.58;99318.00;2193185;39;20044;-77
2021/05/09 04:20:13;;;;;;;7.35;4.32;;;;;;;8.89;70.62;99321.97;2217664;40;20123;-79
2021/05/09 04:21:45;;;;;;;9.38;4.97;;;;;;;8.93;70.73;99324.34;2216101;39;24779;-80
2021/05/09 04:23:17;;;;;;;7.68;4.45;;;;;;;8.95;70.79;99311.69;2231584;40;20296;-78
2021/05/09 04:24:49;;;;;;;7.72;4.80;;;;;;;8.97;70.53;99315.06;2201419;39;20049;-78
2021/05/09 04:26:21;;;;;;;6.90;4.22;;;;;;;8.94;70.36;99323.34;2235989;40;20099;-78
2021/05/09 04:27:52;;;;;;;6.85;4.22;;;;;;;8.94;70.54;99316.16;2232514;39;20100;-79
2021/05/09 04:29:23;;;;;;;6.60;4.80;;;;;;;8.88;70.57;99322.13;2232601;40;20048;-78
2021/05/09 04:30:54;;;;;;;6.97;4.78;;;;;;;8.85;70.91;99325.06;2191930;39;20048;-77
2021/05/09 04:32:26;;;;;;;6.15;4.30;;;;;;;8.82;71.09;99322.75;2209655;40;20038;-78
2021/05/09 04:33:57;;;;;;;6.47;3.70;;;;;;;8.90;70.92;99328.97;2202499;39;20378;-80
2021/05/09 04:35:28;;;;;;;5.63;3.78;;;;;;;9.00;70.68;99328.06;2228398;40;20361;-80
2021/05/09 04:37:00;;;;;;;7.65;4.20;;;;;;;9.04;70.23;99332.94;2220141;40;20037;-77
2021/05/09 04:38:31;;;;;;;8.32;4.65;;;;;;;9.08;70.32;99325.47;2228116;40;20041;-79
2021/05/09 04:40:03;;;;;;;5.70;3.85;;;;;;;9.12;69.93;99331.31;2230104;39;20336;-81
2021/05/09 04:41:36;;;;;;;6.65;3.90;;;;;;;9.20;70.20;99320.75;2230338;40;20035;-79
2021/05/09 04:43:09;;;;;;;5.70;3.80;;;;;;;9.23;69.94;99322.28;2229199;40;20344;-79
2021/05/09 04:44:40;;;;;;;8.23;4.53;;;;;;;9.25;69.93;99322.97;2230439;40;20044;-80
2021/05/09 04:46:31;;;;;;;7.68;4.65;;;;;;;9.29;69.97;99319.84;2228006;39;20340;-80
2021/05/09 04:48:04;;;;;;;5.97;3.78;;;;;;;9.31;69.93;99311.66;2234132;40;20036;-79
2021/05/09 04:49:36;;;;;;;6.15;3.55;;;;;;;9.36;69.76;99317.38;2227058;39;20044;-80
2021/05/09 04:51:46;;;;;;;10.20;4.35;;;;;;;9.39;69.67;99314.41;2230574;40;20029;-80
2021/05/09 04:53:50;;;;;;;7.97;4.22;;;;;;;9.40;69.54;99316.06;2223559;40;20040;-80
2021/05/09 04:55:51;;;;;;;5.38;3.33;;;;;;;9.46;69.37;99314.63;2224580;39;20037;-80
2021/05/09 04:59:51;;;;;;;7.45;3.58;;;;;;;9.54;69.31;99309.34;2228330;40;20029;-78
2021/05/09 05:03:38;;;;;;;10.23;5.03;;;;;;;9.59;69.10;99304.34;2222282;39;20095;-79
2021/05/09 05:05:11;;;;;;;6.07;3.75;;;;;;;9.55;69.21;99312.81;2223923;40;20384;-78
2021/05/09 05:06:42;;;;;;;8.40;4.15;;;;;;;9.58;69.43;99305.38;2228787;39;20039;-78
2021/05/09 05:08:32;;;;;;;7.30;4.30;;;;;;;9.61;69.22;99306.88;2236343;39;20047;-80
2021/05/09 05:10:03;;;;;;;6.78;4.32;;;;;;;9.62;69.25;99312.06;2235367;39;20405;-78
2021/05/09 05:11:35;;;;;;;10.93;4.75;;;;;;;9.59;69.10;99300.88;2235932;40;20051;-78
2021/05/09 05:13:17;;;;;;;8.98;4.57;;;;;;;9.54;69.06;99304.00;2238243;39;20036;-78
2021/05/09 05:18:00;;;;;;;6.38;4.00;;;;;;;9.62;68.98;99316.56;2233482;39;20494;-79
2021/05/09 05:19:32;;;;;;;6.60;3.20;;;;;;;9.66;69.03;99309.91;2226369;39;20065;-79
2021/05/09 05:21:05;;;;;;;7.20;3.95;;;;;;;9.72;68.80;99309.31;2234216;40;20037;-79
2021/05/09 05:22:36;;;;;;;7.60;3.55;;;;;;;9.72;68.76;99319.97;2233740;39;20040;-78
2021/05/09 05:24:09;;;;;;;8.27;4.90;;;;;;;9.64;69.16;99310.06;2236130;40;20040;-79
2021/05/09 05:25:40;;;;;;;7.15;4.20;;;;;;;9.66;69.12;99309.91;2235511;39;20435;-77
2021/05/09 05:27:11;;;;;;;5.28;3.17;;;;;;;9.64;69.18;99311.88;2239350;40;20411;-78
2021/05/09 05:28:42;;;;;;;6.07;3.75;;;;;;;9.66;69.33;99315.25;2238245;39;20090;-78
2021/05/09 05:30:16;;;;;;;6.57;3.88;;;;;;;9.71;69.15;99307.63;2237238;40;20036;-80
2021/05/09 05:31:50;;;;;;;6.75;3.90;;;;;;;9.75;69.21;99316.16;2234873;40;20051;-79
2021/05/09 05:36:12;;;;;;;8.35;3.75;;;;;;;9.81;68.95;99321.69;2195763;40;20059;-80
2021/05/09 05:37:45;;;;;;;7.85;3.50;;;;;;;9.88;68.71;99326.41;2220637;39;20519;-79
2021/05/09 05:40:01;;;;;;;6.68;3.78;;;;;;;9.92;68.47;99317.09;2230762;39;20041;-80
2021/05/09 05:41:46;;;;;;;6.68;4.13;;;;;;;9.98;68.39;99313.78;2239514;39;20043;-78
2021/05/09 05:43:46;;;;;;;6.03;3.60;;;;;;;10.06;68.14;99319.16;2235430;39;20041;-83
2021/05/09 05:46:05;;;;;;;7.00;4.25;;;;;;;10.09;67.97;99307.31;2233173;39;20051;-82
2021/05/09 05:47:36;;;;;;;6.28;3.88;;;;;;;10.12;67.88;99315.84;2227663;40;20064;-79
2021/05/09 05:51:28;;;;;;;5.50;3.67;;;;;;;10.34;67.37;99312.78;2235975;40;20045;-79
2021/05/09 05:53:03;;;;;;;;;;;;;;;10.39;67.32;99305.13;2234130;39;20044;-79
2021/05/09 05:54:42;;;;;;;6.97;3.78;;;;;;;10.49;66.90;99299.63;2234515;39;20355;-80
2021/05/09 05:56:13;;;;;;;7.75;5.10;;;;;;;10.54;66.84;99302.69;2238184;40;20047;-78
2021/05/09 05:57:45;;;;;;;6.85;3.40;;;;;;;10.56;66.94;99303.34;2237382;39;20047;-78
2021/05/09 05:59:16;;;;;;;6.15;3.78;;;;;;;10.68;66.71;99298.53;2237882;40;20356;-80
2021/05/09 06:00:49;;;;;;;5.68;3.22;;;;;;;10.77;66.46;99298.38;2236353;39;20044;-79
2021/05/09 06:02:21;;;;;;;5.60;3.47;;;;;;;10.88;66.14;99301.72;2231539;40;20024;-79
2021/05/09 06:03:53;;;;;;;5.53;3.53;;;;;;;10.93;65.92;99300.25;2230337;39;20044;-81
2021/05/09 06:05:24;;;;;;;6.15;4.00;;;;;;;10.99;65.79;99296.06;2231581;40;20033;-79
2021/05/09 06:06:56;;;;;;;6.00;3.72;;;;;;;11.04;65.66;99296.44;2229801;39;20053;-79
2021/05/09 06:08:28;;;;;;;7.40;4.85;;;;;;;11.07;65.57;99293.41;2230896;40;20053;-80
2021/05/09 06:09:59;;;;;;;7.75;4.97;;;;;;;11.10;65.60;99300.25;2229471;39;20137;-79
2021/05/09 06:11:30;;;;;;;6.63;3.97;;;;;;;11.14;65.59;99288.22;2230366;40;20029;-79
2021/05/09 06:13:02;;;;;;;8.48;4.55;;;;;;;11.18;65.40;99294.06;2229611;39;20383;-79
2021/05/09 06:14:33;;;;;;;6.28;3.60;;;;;;;11.23;65.25;99294.41;2230460;40;20098;-80
2021/05/09 06:16:06;;;;;;;5.95;3.92;;;;;;;11.26;65.28;99286.03;2230150;39;20073;-79
2021/05/09 06:17:37;;;;;;;5.72;3.30;;;;;;;11.31;65.15;99285.53;2231237;40;20033;-79
2021/05/09 06:19:09;;;;;;;6.22;3.95;;;;;;;11.41;65.07;99280.84;2229741;39;20047;-78
2021/05/09 06:20:40;;;;;;;6.85;3.75;;;;;;;11.47;64.83;99284.69;2239082;40;20032;-77
2021/05/09 06:22:11;;;;;;;7.05;4.30;;;;;;;11.53;64.83;99290.22;2238458;39;20280;-79
2021/05/09 06:23:44;;;;;;;6.05;3.97;;;;;;;11.58;64.60;99288.84;2237225;40;20039;-80
2021/05/09 06:25:15;;;;;;;6.35;4.30;;;;;;;11.59;64.54;99291.38;2235040;39;20056;-79
2021/05/09 06:26:52;;;;;;;5.70;3.67;;;;;;;11.62;64.53;99290.19;2236663;40;20051;-80
2021/05/09 06:31:27;;;;;;;6.63;3.50;;;;;;;11.71;64.17;99290.00;2233816;39;20420;-81
2021/05/09 06:33:01;;;;;;;5.68;3.50;;;;;;;11.81;63.80;99276.44;2236284;40;20064;-78
2021/05/09 06:40:51;;;;;;;5.68;2.85;;;;;;;12.12;62.96;99272.16;2237279;39;20770;-78
2021/05/09 06:42:23;;;;;;;5.55;3.42;;;;;;;12.20;62.77;99274.81;2203632;40;20045;-80
2021/05/09 06:43:56;;;;;;;7.35;3.53;;;;;;;12.28;62.50;99268.59;2186771;40;20039;-79
2021/05/09 06:45:29;;;;;;;5.10;3.50;;;;;;;12.34;62.40;99257.16;2205763;40;20018;-80
2021/05/09 06:47:01;;;;;;;5.45;3.45;;;;;;;12.43;61.86;99260.63;2214614;40;20050;-78
2021/05/09 06:48:33;;;;;;;5.57;3.13;;;;;;;12.54;61.92;99270.13;2210388;40;20057;-80
2021/05/09 06:50:05;;;;;;;6.97;4.32;;;;;;;12.64;61.62;99265.38;2207408;40;20412;-81
2021/05/09 06:51:36;;;;;;;9.23;4.80;;;;;;;12.73;61.33;99266.97;2201919;40;20089;-81
2021/05/09 06:53:08;;;;;;;6.70;3.78;;;;;;;12.78;61.01;99261.09;2214977;40;20040;-81
2021/05/09 06:54:39;;;;;;;6.03;3.70;;;;;;;12.86;60.88;99252.97;2217360;40;20057;-81
2021/05/09 06:56:11;;;;;;;4.95;3.42;;;;;;;13.03;60.62;99260.91;2216185;40;20467;-81
2021/05/09 06:57:45;;;;;;;5.15;2.83;;;;;;;13.19;60.32;99255.41;2217571;40;20572;-81
2021/05/09 07:06:43;;;;;;;5.45;3.50;;;;;;;14.12;57.97;99248.94;2212027;40;20338;-81
2021/05/09 07:18:10;;;;;;;8.57;4.55;;;;;;;15.48;54.69;99228.53;2213091;40;20042;-82
2021/05/09 07:19:43;;;;;;;7.53;4.63;;;;;;;15.69;53.78;99230.31;2208588;40;20080;-83
2021/05/09 07:21:17;;;;;;;5.60;3.50;;;;;;;15.90;53.58;99224.03;2213673;40;20116;-85
2021/05/09 07:22:53;;;;;;;8.15;3.97;;;;;;;16.15;52.91;99231.63;2197381;40;20434;-83
2021/05/09 07:24:31;;;;;;;7.57;3.78;;;;;;;16.31;52.71;99219.63;2189638;40;20034;-87
2021/05/09 07:26:04;;;;;;;7.95;4.18;;;;;;;16.46;52.25;99224.88;2206432;40;20035;-84
2021/05/09 07:27:35;;;;;;;11.20;4.45;;;;;;;16.53;52.01;99221.16;2206494;40;20039;-84
2021/05/09 07:29:13;;;;;;;5.53;3.03;;;;;;;16.71;51.71;99224.31;2206586;40;20043;-83
2021/05/09 07:30:47;;;;;;;6.88;3.97;;;;;;;16.89;51.44;99221.84;2207040;40;20051;-83
2021/05/09 07:32:19;;;;;;;6.07;4.00;;;;;;;17.17;50.73;99217.31;2207318;40;20309;-84
2021/05/09 07:33:57;;;;;;;6.15;3.60;;;;;;;17.46;50.05;99216.06;2177232;40;20063;-84
2021/05/09 07:35:29;;;;;;;5.40;3.13;;;;;;;17.61;49.46;99216.66;2199866;40;20031;-84
2021/05/09 07:37:01;;;;;;;6.05;3.47;;;;;;;17.73;49.25;99207.91;2189003;40;20470;-84
2021/05/09 07:38:35;;;;;;;6.85;3.72;;;;;;;17.81;48.87;99213.06;2202162;40;20031;-83
2021/05/09 07:40:22;;;;;;;6.28;3.80;;;;;;;17.88;48.73;99205.75;2202674;40;20058;-83
2021/05/09 07:44:59;;;;;;;5.28;3.08;;;;;;;18.39;47.61;99203.28;2213588;40;20042;-82
2021/05/09 07:46:32;;;;;;;8.85;3.90;;;;;;;18.52;47.32;99186.97;2211227;40;20093;-81
2021/05/09 07:48:04;;;;;;;6.40;3.50;;;;;;;18.66;46.95;99200.41;2207989;40;20047;-81
2021/05/09 07:49:37;;;;;;;5.78;3.17;;;;;;;18.81;46.96;99194.69;2208458;40;20521;-81
2021/05/09 07:55:43;;;;;;;5.50;2.60;;;;;;;19.42;45.63;99185.03;2214901;40;20062;-84
2021/05/09 08:00:50;;;;;;;5.00;2.58;;;;;;;19.94;44.53;99175.72;933269;23;20255;-89
2021/05/09 08:02:21;;;;;;;4.90;2.85;;;;;;;20.23;43.95;99173.25;2216212;40;20050;-83
2021/05/09 08:03:54;;;;;;;8.65;3.10;;;;;;;20.47;43.15;99168.75;2203613;40;20432;-83
2021/05/09 08:05:28;;;;;;;7.28;4.55;;;;;;;20.75;42.66;99170.03;2216814;40;20081;-83
2021/05/09 08:11:31;;;;;;;6.70;2.95;;;;;;;21.21;41.57;99158.63;2192071;40;20047;-82
2021/05/09 08:13:04;;;;;;;5.30;2.72;;;;;;;21.32;41.42;99152.34;2210963;40;20052;-83
2021/05/09 08:14:35;;;;;;;5.03;2.40;;;;;;;21.51;40.96;99148.44;2223081;40;20545;-83
2021/05/09 08:16:06;;;;;;;4.47;2.13;;;;;;;21.64;40.69;99154.72;2218152;40;20045;-82
2021/05/09 08:17:37;;;;;;;8.77;2.70;;;;;;;21.81;40.62;99141.22;2223184;40;20044;-78
2021/05/09 08:19:08;;;;;;;5.15;2.30;;;;;;;22.05;40.06;99143.84;2221699;40;20030;-80
2021/05/09 08:20:41;;;;;;;4.40;2.10;;;;;;;22.10;39.71;99144.75;2215989;40;20034;-78
2021/05/09 08:22:12;;;;;;;6.63;2.00;;;;;;;22.18;39.59;99142.72;2221368;40;20049;-80
2021/05/09 08:23:44;;;;;;;4.43;1.83;;;;;;;22.32;39.44;99144.09;2216059;40;20029;-81
2021/05/09 08:25:16;;;;;;;6.35;2.58;;;;;;;22.59;38.67;99133.41;2217086;40;20048;-81
2021/05/09 08:26:47;;;;;;;6.65;2.80;;;;;;;22.67;38.27;99128.66;2215785;40;20057;-81
2021/05/09 08:28:18;;;;;;;4.57;1.80;;;;;;;22.93;36.47;99134.50;2214617;40;20551;-80
2021/05/09 08:29:52;;;;;;;3.13;1.38;;;;;;;23.25;34.76;99123.84;2215913;40;20609;-81
2021/05/09 08:31:23;;;;;;;5.85;1.15;;;;;;;23.46;33.66;99121.41;2217724;40;20044;-79
2021/05/09 08:32:55;;;;;;;4.50;1.00;;;;;;;23.75;32.95;99121.22;2220911;40;20469;-80
2021/05/09 08:34:26;;;;;;;3.00;0.98;;;;;;;24.06;32.15;99116.97;2217414;40;20095;-79
2021/05/09 08:35:58;;;;;;;3.85;1.60;;;;;;;24.26;31.61;99124.53;2220345;40;20038;-79
2021/05/09 08:37:30;;;;;;;3.55;1.20;;;;;;;24.33;31.19;99118.03;2220995;40;20061;-80
2021/05/09 08:39:01;;;;;;;3.38;0.80;;;;;;;24.54;31.01;99111.69;2215739;40;20038;-81
2021/05/09 08:40:33;;;;;;;3.92;1.30;;;;;;;24.79;30.22;99109.44;2214270;40;20057;-82
2021/05/09 08:42:04;;;;;;;2.78;0.90;;;;;;;24.96;30.54;99118.31;2218920;40;20076;-81
2021/05/09 08:43:36;;;;;;;3.13;0.80;;;;;;;25.14;29.55;99102.56;2221815;40;20034;-81
2021/05/09 08:45:09;;;;;;;2.78;1.20;;;;;;;25.27;29.47;99107.59;2216568;40;20032;-84
2021/05/09 08:46:42;;;;;;;2.67;0.90;;;;;;;25.29;29.70;99101.84;2208691;40;20306;-81
2021/05/09 08:48:19;;;;;;;2.75;0.98;;;;;;;25.40;29.35;99105.50;2211754;40;20042;-81
2021/05/09 08:49:52;;;;;;;5.15;1.02;;;;;;;25.61;29.26;99107.22;2208935;40;20208;-81
2021/05/09 08:51:25;;;;;;;2.70;0.98;;;;;;;25.85;28.62;99098.56;2210201;40;20479;-82
2021/05/09 08:52:56;;;;;;;3.00;0.98;;;;;;;25.94;28.37;99098.84;2218476;40;20035;-82
2021/05/09 08:54:27;;;;;;;3.20;0.95;;;;;;;26.07;28.37;99100.28;2215849;40;20461;-81
2021/05/09 08:55:58;;;;;;;1.80;0.70;;;;;;;26.39;28.00;99099.22;2215948;40;20064;-79
2021/05/09 08:57:29;;;;;;;2.40;1.25;;;;;;;26.46;27.48;99097.88;2211717;40;20457;-80
2021/05/09 08:59:01;;;;;;;2.17;0.85;;;;;;;26.56;27.49;99093.50;2216724;40;20045;-81
2021/05/09 09:00:32;;;;;;;3.05;1.08;;;;;;;26.75;27.04;99101.97;2219522;40;20578;-81
2021/05/09 09:02:03;;;;;;;2.50;0.90;;;;;;;26.88;27.16;99097.88;2221759;40;20044;-81
2021/05/09 09:03:34;;;;;;;2.30;0.90;;;;;;;27.01;26.91;99086.34;2208456;40;20298;-85
2021/05/09 09:05:07;;;;;;;3.10;0.90;;;;;;;27.22;26.53;99089.84;2209627;40;20042;-81
2021/05/09 09:06:46;;;;;;;2.83;1.00;;;;;;;27.28;26.21;99087.94;2211203;40;20046;-80
2021/05/09 09:08:19;;;;;;;2.72;0.85;;;;;;;27.33;26.64;99093.41;2219061;40;20025;-79
2021/05/09 09:09:51;;;;;;;2.30;0.80;;;;;;;27.39;26.73;99084.06;2219201;40;20036;-81
2021/05/09 09:11:27;;;;;;;5.10;1.25;;;;;;;27.61;26.19;99084.81;2219033;40;20041;-81
2021/05/09 09:13:00;;;;;;;2.50;0.73;;;;;;;27.72;25.80;99083.66;2220316;40;20049;-81
2021/05/09 09:14:31;;;;;;;2.83;1.08;;;;;;;27.70;25.13;99080.38;2210098;40;20399;-82
2021/05/09 09:16:04;;;;;;;3.58;1.23;;;;;;;27.64;25.35;99076.03;2208803;40;20054;-82